createdAt,value
2023-04-16T00:00:31.478Z,1006.32
2023-04-16T00:06:15.636Z,1006.33
2023-04-16T00:12:01.799Z,1006.31
2023-04-16T00:17:46.107Z,1006.27
2023-04-16T00:23:30.358Z,1006.24
2023-04-16T00:29:14.285Z,1006.27
2023-04-16T00:34:58.197Z,1006.21
2023-04-16T00:40:42.160Z,1006.17
2023-04-16T00:46:27.089Z,1006.16
2023-04-16T00:52:12.392Z,1006.23
2023-04-16T00:57:56.396Z,1006.16
2023-04-16T01:03:45.315Z,1006.22
2023-04-16T01:09:29.605Z,1006.19
2023-04-16T01:15:13.868Z,1006.22
2023-04-16T01:20:57.997Z,1006.26
2023-04-16T01:26:42.098Z,1006.31
2023-04-16T01:32:26.057Z,1006.38
2023-04-16T01:38:10.517Z,1006.39
2023-04-16T01:43:54.599Z,1006.42
2023-04-16T01:49:38.777Z,1006.39
2023-04-16T01:55:22.781Z,1006.41
2023-04-16T02:01:07.702Z,1006.4
2023-04-16T02:06:52.654Z,1006.44
2023-04-16T02:12:36.783Z,1006.43
2023-04-16T02:18:20.855Z,1006.37
2023-04-16T02:24:05.456Z,1006.44
2023-04-16T02:29:49.621Z,1006.42
2023-04-16T02:35:33.887Z,1006.45
2023-04-16T02:41:17.904Z,1006.42
2023-04-16T02:47:02.016Z,1006.45
2023-04-16T02:52:45.999Z,1006.49
2023-04-16T02:58:29.981Z,1006.5
2023-04-16T03:04:14.054Z,1006.46
2023-04-16T03:09:58.406Z,1006.45
2023-04-16T03:15:48.510Z,1006.43
2023-04-16T03:21:32.807Z,1006.45
2023-04-16T03:27:16.647Z,1006.39
2023-04-16T03:33:00.888Z,1006.41
2023-04-16T03:38:45.459Z,1006.41
2023-04-16T03:44:29.465Z,1006.35
2023-04-16T03:50:13.738Z,1006.33
2023-04-16T03:55:57.755Z,1006.38
2023-04-16T04:01:41.716Z,1006.36
2023-04-16T04:07:26.068Z,1006.39
2023-04-16T04:13:10.305Z,1006.38
2023-04-16T04:18:54.779Z,1006.39
2023-04-16T04:24:38.814Z,1006.39
2023-04-16T04:30:22.962Z,1006.42
2023-04-16T04:36:08.459Z,1006.43
2023-04-16T04:41:52.452Z,1006.52
2023-04-16T04:47:36.552Z,1006.52
2023-04-16T04:53:20.703Z,1006.56
2023-04-16T04:59:04.762Z,1006.6
2023-04-16T05:04:48.827Z,1006.64
2023-04-16T05:10:32.956Z,1006.71
2023-04-16T05:16:17.172Z,1006.69
2023-04-16T05:22:01.243Z,1006.72
2023-04-16T05:27:45.550Z,1006.74
2023-04-16T05:33:29.724Z,1006.82
2023-04-16T05:39:13.782Z,1006.86
2023-04-16T05:44:57.761Z,1006.92
2023-04-16T05:50:41.850Z,1006.96
2023-04-16T05:56:25.833Z,1007.02
2023-04-16T06:02:10.790Z,1007.06
2023-04-16T06:07:55.546Z,1007.16
2023-04-16T06:13:40.494Z,1007.18
2023-04-16T06:19:24.405Z,1007.2
2023-04-16T06:25:08.894Z,1007.21
2023-04-16T06:30:52.946Z,1007.28
2023-04-16T06:36:36.738Z,1007.31
2023-04-16T06:42:21.014Z,1007.38
2023-04-16T06:48:05.567Z,1007.36
2023-04-16T06:53:49.793Z,1007.41
2023-04-16T06:59:34.771Z,1007.48
2023-04-16T07:05:19.147Z,1007.52
2023-04-16T07:11:04.256Z,1007.52
2023-04-16T07:16:48.282Z,1007.56
2023-04-16T07:22:33.498Z,1007.6
2023-04-16T07:28:17.293Z,1007.58
2023-04-16T07:34:01.325Z,1007.65
2023-04-16T07:39:45.582Z,1007.68
2023-04-16T07:45:29.670Z,1007.7
2023-04-16T07:51:13.753Z,1007.76
2023-04-16T07:56:57.799Z,1007.82
2023-04-16T08:02:42.093Z,1007.85
2023-04-16T08:08:28.773Z,1007.88
2023-04-16T08:14:12.823Z,1007.96
2023-04-16T08:19:57.008Z,1008
2023-04-16T08:25:41.206Z,1008.06
2023-04-16T08:31:25.551Z,1008.04
2023-04-16T08:37:09.931Z,1008.11
2023-04-16T08:42:54.771Z,1008.14
2023-04-16T08:48:39.742Z,1008.16
2023-04-16T08:54:29.380Z,1008.21
2023-04-16T09:00:16.959Z,1008.26
2023-04-16T09:06:03.743Z,1008.27
2023-04-16T09:11:51.160Z,1008.35
2023-04-16T09:17:35.876Z,1008.36
2023-04-16T09:23:20.042Z,1008.38
2023-04-16T09:29:04.154Z,1008.38
2023-04-16T09:35:01.547Z,1008.41
2023-04-16T09:40:46.709Z,1008.49
2023-04-16T09:46:33.286Z,1008.51
2023-04-16T09:52:18.983Z,1008.57
2023-04-16T09:58:06.106Z,1008.62
2023-04-16T10:03:51.125Z,1008.62
2023-04-16T10:09:38.194Z,1008.67
2023-04-16T10:15:22.564Z,1008.69
2023-04-16T10:21:06.562Z,1008.69
2023-04-16T10:26:52.805Z,1008.73
2023-04-16T10:32:37.601Z,1008.74
2023-04-16T10:38:30.772Z,1008.74
2023-04-16T10:44:14.848Z,1008.74
2023-04-16T10:49:59.120Z,1008.76
2023-04-16T10:55:48.492Z,1008.74
2023-04-16T11:01:36.646Z,1008.77
2023-04-16T11:07:22.674Z,1008.81
2023-04-16T11:13:07.652Z,1008.81
2023-04-16T11:18:53.936Z,1008.84
2023-04-16T11:24:40.242Z,1008.84
2023-04-16T11:30:29.247Z,1008.75
2023-04-16T11:36:13.525Z,1008.83
2023-04-16T11:41:57.757Z,1008.8
2023-04-16T11:47:48.034Z,1008.81
2023-04-16T11:53:32.204Z,1008.77
2023-04-16T11:59:17.213Z,1008.85
2023-04-16T12:05:01.399Z,1008.93
2023-04-16T12:10:57.200Z,1008.9
2023-04-16T12:16:41.520Z,1008.97
2023-04-16T12:22:33.610Z,1008.99
2023-04-16T12:28:24.739Z,1008.91
2023-04-16T12:34:08.854Z,1008.9
2023-04-16T12:39:52.974Z,1008.94
2023-04-16T12:45:37.531Z,1008.93
2023-04-16T12:51:21.639Z,1008.93
2023-04-16T12:57:05.795Z,1008.93
2023-04-16T13:02:51.079Z,1008.93
2023-04-16T13:08:35.606Z,1008.92
2023-04-16T13:14:20.579Z,1008.85
2023-04-16T13:20:04.815Z,1008.9
2023-04-16T13:25:50.751Z,1008.91
2023-04-16T13:31:34.857Z,1008.92
2023-04-16T13:37:19.206Z,1008.91
2023-04-16T13:43:03.363Z,1008.92
2023-04-16T13:48:50.583Z,1008.87
2023-04-16T13:54:34.908Z,1008.88
2023-04-16T14:00:19.362Z,1008.9
2023-04-16T14:06:03.555Z,1008.9
2023-04-16T14:11:47.931Z,1008.94
2023-04-16T14:17:32.244Z,1008.95
2023-04-16T14:23:16.240Z,1008.89
2023-04-16T14:29:00.382Z,1008.84
2023-04-16T14:34:44.398Z,1008.86
2023-04-16T14:40:29.652Z,1008.91
2023-04-16T14:46:13.788Z,1008.96
2023-04-16T14:51:57.894Z,1008.9
2023-04-16T14:57:41.906Z,1008.86
2023-04-16T15:03:26.416Z,1008.83
2023-04-16T15:09:11.616Z,1008.84
2023-04-16T15:14:56.091Z,1008.84
2023-04-16T15:20:40.081Z,1008.83
2023-04-16T15:26:24.062Z,1008.84
2023-04-16T15:32:08.218Z,1008.85
2023-04-16T15:37:52.317Z,1008.87
2023-04-16T15:43:36.354Z,1008.92
2023-04-16T15:49:20.359Z,1008.96
2023-04-16T15:55:05.562Z,1008.96
2023-04-16T16:00:50.479Z,1008.97
2023-04-16T16:06:34.859Z,1008.93
2023-04-16T16:12:19.019Z,1008.9
2023-04-16T16:18:03.075Z,1008.87
2023-04-16T16:23:47.339Z,1008.85
2023-04-16T16:29:31.388Z,1008.85
2023-04-16T16:35:15.316Z,1008.84
2023-04-16T16:40:59.443Z,1008.89
2023-04-16T16:46:46.362Z,1008.86
2023-04-16T16:52:31.033Z,1008.93
2023-04-16T16:58:14.995Z,1008.88
2023-04-16T17:03:59.718Z,1008.9
2023-04-16T17:09:43.973Z,1008.87
2023-04-16T17:15:28.184Z,1008.86
2023-04-16T17:21:12.399Z,1008.82
2023-04-16T17:26:58.940Z,1008.82
2023-04-16T17:32:43.185Z,1008.86
2023-04-16T17:38:27.365Z,1008.91
2023-04-16T17:44:13.158Z,1008.94
2023-04-16T17:49:58.057Z,1008.96
2023-04-16T17:55:41.995Z,1008.98
2023-04-16T18:01:27.235Z,1009
2023-04-16T18:07:13.009Z,1008.99
2023-04-16T18:12:57.385Z,1009
2023-04-16T18:18:42.335Z,1009.04
2023-04-16T18:24:26.621Z,1009.11
2023-04-16T18:30:22.000Z,1009.04
2023-04-16T18:36:10.229Z,1009.07
2023-04-16T18:41:54.192Z,1009.08
2023-04-16T18:47:38.372Z,1009.16
2023-04-16T18:53:22.628Z,1009.19
2023-04-16T18:59:08.868Z,1009.25
2023-04-16T19:04:53.930Z,1009.26
2023-04-16T19:10:37.855Z,1009.31
2023-04-16T19:16:22.090Z,1009.31
2023-04-16T19:22:06.200Z,1009.34
2023-04-16T19:27:50.602Z,1009.33
2023-04-16T19:33:34.510Z,1009.43
2023-04-16T19:39:18.594Z,1009.45
2023-04-16T19:45:02.717Z,1009.51
2023-04-16T19:50:47.659Z,1009.49
2023-04-16T19:56:31.562Z,1009.55
2023-04-16T20:02:18.073Z,1009.54
2023-04-16T20:08:02.963Z,1009.58
2023-04-16T20:13:47.110Z,1009.61
2023-04-16T20:19:31.165Z,1009.62
2023-04-16T20:25:15.234Z,1009.64
2023-04-16T20:30:59.457Z,1009.66
2023-04-16T20:36:43.665Z,1009.65
2023-04-16T20:42:27.673Z,1009.6
2023-04-16T20:48:11.869Z,1009.6
2023-04-16T20:53:55.892Z,1009.53
2023-04-16T20:59:40.062Z,1009.53
2023-04-16T21:05:24.000Z,1009.47
2023-04-16T21:11:08.880Z,1009.44
2023-04-16T21:16:52.926Z,1009.41
2023-04-16T21:22:37.021Z,1009.39
2023-04-16T21:28:20.835Z,1009.37
2023-04-16T21:34:04.933Z,1009.36
2023-04-16T21:39:48.977Z,1009.39
2023-04-16T21:45:32.973Z,1009.38
2023-04-16T21:51:17.250Z,1009.39
2023-04-16T21:57:01.225Z,1009.42
2023-04-16T22:02:45.760Z,1009.36
2023-04-16T22:08:30.657Z,1009.35
2023-04-16T22:14:14.697Z,1009.36
2023-04-16T22:19:58.697Z,1009.35
2023-04-16T22:25:42.681Z,1009.27
2023-04-16T22:31:26.843Z,1009.31
2023-04-16T22:37:10.992Z,1009.26
2023-04-16T22:42:54.860Z,1009.25
2023-04-16T22:48:38.906Z,1009.24
2023-04-16T22:54:22.864Z,1009.21
2023-04-16T23:00:07.639Z,1009.22
2023-04-16T23:05:51.684Z,1009.18
2023-04-16T23:11:35.669Z,1009.18
2023-04-16T23:17:19.807Z,1009.15
2023-04-16T23:23:03.903Z,1009.21
2023-04-16T23:28:49.987Z,1009.21
2023-04-16T23:34:34.077Z,1009.19
2023-04-16T23:40:19.484Z,1009.16
2023-04-16T23:46:04.002Z,1009.16
2023-04-16T23:51:48.316Z,1009.17
2023-04-16T23:57:33.294Z,1009.12
